Time;durP1;ratioP1;P1;durP2;ratioP2;P2;SDS_P1;SDS_P2;PMS_P1;PMS_P2;Temp;Humidity;BMP_temperature;BMP_pressure;BME280_temperature;BME280_humidity;BME280_pressure;Samples;Min_cycle;Max_cycle;Signal;HPM_P1;HPM_P2
2021/03/27 00:02:02;;;;;;;2.45;1.00;;;6.70;99.90;;;;;;5061926;28;20082;-71
2021/03/27 00:04:36;;;;;;;3.00;1.20;;;6.70;99.90;;;;;;5061334;28;20044;-70
2021/03/27 00:07:32;;;;;;;2.03;1.13;;;6.70;99.90;;;;;;5044238;28;20039;-71
2021/03/27 00:10:18;;;;;;;1.00;0.85;;;6.70;99.90;;;;;;5071594;28;20059;-71
2021/03/27 00:12:54;;;;;;;1.73;1.00;;;6.70;99.90;;;;;;5072417;28;20036;-71
2021/03/27 00:15:47;;;;;;;5.90;1.30;;;6.70;99.90;;;;;;5058850;28;20036;-71
2021/03/27 00:18:22;;;;;;;9.23;1.88;;;6.60;99.90;;;;;;5068851;28;20362;-71
2021/03/27 00:20:58;;;;;;;1.00;0.77;;;6.60;99.90;;;;;;5066061;28;20377;-72
2021/03/27 00:23:47;;;;;;;2.88;1.15;;;6.60;99.90;;;;;;5053786;28;20021;-75
2021/03/27 00:26:24;;;;;;;2.00;0.80;;;6.60;99.90;;;;;;5055217;28;20052;-72
2021/03/27 00:29:06;;;;;;;3.30;0.85;;;6.70;99.90;;;;;;5064962;28;20021;-71
2021/03/27 00:31:41;;;;;;;8.85;1.25;;;6.70;99.90;;;;;;5064246;28;20028;-71
2021/03/27 00:34:12;;;;;;;3.65;0.93;;;6.70;99.90;;;;;;5063577;28;20586;-71
2021/03/27 00:36:51;;;;;;;3.72;0.70;;;6.70;99.90;;;;;;5072089;28;20021;-71
2021/03/27 00:39:22;;;;;;;1.63;0.82;;;6.70;99.90;;;;;;5054121;28;20178;-71
2021/03/27 00:42:01;;;;;;;3.78;0.70;;;6.70;99.90;;;;;;5051939;28;20025;-71
2021/03/27 00:44:35;;;;;;;1.95;0.90;;;6.80;99.90;;;;;;5068040;28;20008;-71
2021/03/27 00:47:02;;;;;;;8.43;0.90;;;6.80;99.90;;;;;;5072116;28;20048;-71
2021/03/27 00:49:43;;;;;;;2.80;1.13;;;6.80;99.90;;;;;;5072164;28;20033;-71
2021/03/27 00:52:11;;;;;;;6.63;1.13;;;6.80;99.90;;;;;;5070642;28;20283;-71
2021/03/27 00:54:43;;;;;;;2.58;0.80;;;6.90;99.90;;;;;;5069370;28;20024;-71
2021/03/27 00:57:32;;;;;;;4.43;1.40;;;6.80;99.90;;;;;;5054011;28;20036;-71
2021/03/27 01:00:07;;;;;;;5.85;1.90;;;6.80;99.90;;;;;;5072488;28;20028;-71
2021/03/27 01:02:35;;;;;;;6.88;1.83;;;6.80;99.90;;;;;;5057818;28;20374;-71
2021/03/27 01:05:06;;;;;;;7.60;2.25;;;6.80;99.90;;;;;;5050920;28;20040;-71
2021/03/27 01:07:33;;;;;;;4.75;1.90;;;6.70;99.90;;;;;;5072169;28;20052;-71
2021/03/27 01:10:25;;;;;;;2.45;1.50;;;6.60;99.90;;;;;;5052883;28;20033;-71
2021/03/27 01:12:53;;;;;;;2.28;0.95;;;6.60;99.90;;;;;;5028591;28;20436;-72
2021/03/27 01:15:43;;;;;;;3.30;0.75;;;6.70;99.90;;;;;;5072343;28;20074;-71
2021/03/27 01:18:13;;;;;;;3.55;0.70;;;6.50;99.90;;;;;;5072128;28;20470;-73
2021/03/27 01:20:42;;;;;;;2.95;0.77;;;6.50;99.90;;;;;;5053408;28;20048;-72
2021/03/27 01:23:10;;;;;;;2.33;0.63;;;6.40;99.90;;;;;;5072152;28;20036;-72
2021/03/27 01:25:37;;;;;;;1.70;0.30;;;6.30;99.90;;;;;;5071529;28;20021;-72
2021/03/27 01:28:20;;;;;;;2.05;0.73;;;6.30;99.90;;;;;;5052549;28;20035;-72
2021/03/27 01:31:07;;;;;;;4.57;0.52;;;6.30;99.90;;;;;;5053227;28;20036;-73
2021/03/27 01:33:57;;;;;;;1.67;0.70;;;6.30;99.90;;;;;;5066684;28;20044;-72
2021/03/27 01:36:44;;;;;;;1.27;0.82;;;6.30;99.90;;;;;;5071388;28;20029;-72
2021/03/27 01:39:20;;;;;;;2.58;0.50;;;6.20;99.90;;;;;;5068206;28;20037;-72
2021/03/27 01:41:55;;;;;;;1.02;0.45;;;6.30;99.90;;;;;;5073706;28;20480;-72
2021/03/27 01:44:53;;;;;;;3.15;0.55;;;6.20;99.90;;;;;;5057426;28;20047;-72
2021/03/27 01:47:21;;;;;;;7.68;1.10;;;6.20;99.90;;;;;;5036921;28;20047;-72
2021/03/27 01:49:53;;;;;;;3.17;0.80;;;6.10;99.90;;;;;;5075857;28;20045;-72
2021/03/27 01:52:27;;;;;;;5.65;1.05;;;6.00;99.90;;;;;;5075679;28;20028;-72
2021/03/27 01:55:18;;;;;;;6.07;1.10;;;5.90;99.90;;;;;;5069157;28;20035;-72
2021/03/27 01:58:00;;;;;;;8.45;1.20;;;5.90;99.90;;;;;;5056404;28;20450;-72
2021/03/27 02:00:32;;;;;;;4.63;1.05;;;5.90;99.90;;;;;;5059075;28;20044;-72
2021/03/27 02:03:24;;;;;;;1.58;1.40;;;5.80;99.90;;;;;;5075438;28;20020;-72
2021/03/27 02:06:03;;;;;;;7.13;1.15;;;5.80;99.90;;;;;;5040129;28;20119;-72
2021/03/27 02:09:01;;;;;;;5.82;1.42;;;5.70;99.90;;;;;;5057259;28;20028;-72
2021/03/27 02:11:38;;;;;;;5.95;2.30;;;5.60;99.90;;;;;;5071286;28;20029;-72
2021/03/27 02:14:13;;;;;;;5.30;1.80;;;5.50;99.90;;;;;;5064313;28;20150;-71
2021/03/27 02:16:49;;;;;;;3.30;1.75;;;5.40;99.90;;;;;;5075179;28;20393;-72
2021/03/27 02:19:24;;;;;;;8.95;2.70;;;5.30;99.90;;;;;;5076032;28;20028;-72
2021/03/27 02:22:06;;;;;;;6.82;3.00;;;5.30;99.90;;;;;;5055145;28;20136;-72
2021/03/27 02:24:54;;;;;;;12.07;4.28;;;5.30;99.90;;;;;;5074664;28;20469;-72
2021/03/27 02:27:37;;;;;;;7.43;3.53;;;5.30;99.90;;;;;;5074903;28;20040;-72
2021/03/27 02:30:14;;;;;;;26.98;3.83;;;5.40;99.90;;;;;;5074717;28;20477;-72
2021/03/27 02:33:12;;;;;;;16.17;4.40;;;5.40;99.90;;;;;;5074780;28;20045;-71
2021/03/27 02:35:59;;;;;;;15.60;4.88;;;5.40;99.90;;;;;;5063544;28;20132;-71
2021/03/27 02:38:55;;;;;;;11.07;4.03;;;5.50;99.90;;;;;;5074534;28;20024;-71
2021/03/27 02:41:46;;;;;;;10.40;3.70;;;5.60;99.90;;;;;;5060609;28;20468;-71
2021/03/27 02:44:19;;;;;;;15.50;4.68;;;5.60;99.90;;;;;;5069317;28;20031;-71
2021/03/27 02:46:50;;;;;;;9.80;3.65;;;5.60;99.90;;;;;;5063610;28;20020;-72
2021/03/27 02:49:44;;;;;;;11.85;3.80;;;5.70;99.90;;;;;;5049084;28;20116;-72
2021/03/27 02:52:42;;;;;;;13.13;3.75;;;5.60;99.90;;;;;;5061612;28;20045;-71
2021/03/27 02:55:19;;;;;;;13.90;4.97;;;5.70;99.90;;;;;;5059325;28;20047;-71
2021/03/27 02:58:18;;;;;;;22.00;4.13;;;5.70;99.90;;;;;;5059227;28;20103;-72
2021/03/27 03:00:56;;;;;;;11.77;3.50;;;5.70;99.90;;;;;;5056156;28;20016;-71
2021/03/27 03:04:00;;;;;;;9.88;2.97;;;5.80;99.90;;;;;;5069873;28;20021;-71
2021/03/27 03:06:42;;;;;;;14.90;3.30;;;5.80;99.90;;;;;;4991991;28;20033;-71
2021/03/27 03:09:24;;;;;;;16.65;3.75;;;5.80;99.90;;;;;;5074229;28;20496;-72
2021/03/27 03:12:19;;;;;;;7.15;3.10;;;5.70;99.90;;;;;;5071537;28;20048;-72
2021/03/27 03:14:59;;;;;;;10.20;3.25;;;5.80;99.90;;;;;;5065139;28;20086;-72
2021/03/27 03:17:31;;;;;;;14.23;2.97;;;5.80;99.90;;;;;;5061124;28;20040;-72
2021/03/27 03:20:18;;;;;;;10.32;3.53;;;5.70;99.90;;;;;;5073610;28;20032;-72
2021/03/27 03:23:16;;;;;;;9.48;2.83;;;5.80;99.90;;;;;;5062051;28;20362;-72
2021/03/27 03:25:54;;;;;;;12.40;2.75;;;5.70;99.90;;;;;;5068144;28;20048;-72
2021/03/27 03:28:46;;;;;;;17.50;3.60;;;5.70;99.90;;;;;;5065795;28;20040;-71
2021/03/27 03:31:44;;;;;;;13.43;2.78;;;5.80;99.90;;;;;;5073855;28;20029;-71
2021/03/27 03:34:25;;;;;;;17.25;3.17;;;6.00;99.90;;;;;;5067014;28;20083;-71
2021/03/27 03:37:28;;;;;;;11.10;3.13;;;6.00;99.90;;;;;;5055327;28;20041;-71
2021/03/27 03:40:24;;;;;;;10.60;2.47;;;6.10;99.90;;;;;;5062104;28;20384;-72
2021/03/27 03:42:58;;;;;;;9.77;2.70;;;6.20;99.90;;;;;;5071122;28;20055;-71
2021/03/27 03:45:30;;;;;;;6.90;2.55;;;6.20;99.90;;;;;;5073709;28;20027;-72
2021/03/27 03:48:19;;;;;;;17.70;2.40;;;6.30;99.90;;;;;;5068178;28;20090;-72
2021/03/27 03:50:55;;;;;;;13.70;2.83;;;6.40;99.90;;;;;;5068240;28;20090;-72
2021/03/27 03:53:32;;;;;;;9.45;2.35;;;6.50;99.90;;;;;;5072279;28;20028;-72
2021/03/27 03:56:24;;;;;;;13.23;3.15;;;6.50;99.90;;;;;;5073218;28;20035;-74
2021/03/27 03:59:04;;;;;;;6.18;2.30;;;6.40;99.90;;;;;;5016690;28;20049;-72
2021/03/27 04:01:40;;;;;;;11.18;2.33;;;6.50;99.90;;;;;;5071768;28;20040;-72
2021/03/27 04:04:15;;;;;;;13.35;2.22;;;6.50;99.90;;;;;;5073471;28;20039;-72
2021/03/27 04:06:43;;;;;;;14.48;2.30;;;6.50;99.90;;;;;;5072149;28;20025;-72
2021/03/27 04:09:22;;;;;;;12.27;1.95;;;6.60;99.90;;;;;;5073044;28;20050;-72
2021/03/27 04:11:58;;;;;;;11.00;2.40;;;6.50;99.90;;;;;;5070073;28;20055;-72
2021/03/27 04:14:47;;;;;;;8.98;2.80;;;6.60;99.90;;;;;;5072955;28;20033;-72
2021/03/27 04:17:22;;;;;;;15.25;2.17;;;6.60;99.90;;;;;;5068230;28;20048;-72
2021/03/27 04:19:57;;;;;;;9.50;1.98;;;6.60;99.90;;;;;;5072355;28;20404;-72
2021/03/27 04:22:32;;;;;;;13.88;2.95;;;6.60;99.90;;;;;;5054827;28;20078;-73
2021/03/27 04:25:07;;;;;;;14.02;1.77;;;6.50;99.90;;;;;;5072707;28;20090;-72
2021/03/27 04:27:42;;;;;;;8.13;1.67;;;6.50;99.90;;;;;;5071997;28;20107;-73
2021/03/27 04:30:32;;;;;;;4.60;1.30;;;6.50;99.90;;;;;;5050311;28;20028;-72
2021/03/27 04:33:12;;;;;;;10.75;1.98;;;6.60;99.90;;;;;;5034774;28;20048;-73
2021/03/27 04:35:48;;;;;;;14.38;1.30;;;6.60;99.90;;;;;;5052342;28;20492;-72
2021/03/27 04:38:35;;;;;;;9.20;1.95;;;6.60;99.90;;;;;;5070017;28;20111;-72
2021/03/27 04:41:07;;;;;;;15.30;2.70;;;6.60;99.90;;;;;;5053097;28;20028;-73
2021/03/27 04:43:39;;;;;;;13.13;2.17;;;6.60;99.90;;;;;;5071273;28;20089;-73
2021/03/27 04:46:21;;;;;;;9.60;1.38;;;6.70;99.90;;;;;;5073107;28;20028;-72
2021/03/27 04:49:13;;;;;;;12.70;1.75;;;6.70;99.90;;;;;;5063903;28;20020;-72
2021/03/27 04:51:42;;;;;;;16.40;2.03;;;6.80;99.90;;;;;;5053667;28;20481;-71
2021/03/27 04:54:30;;;;;;;10.93;1.77;;;6.80;99.90;;;;;;5072180;28;20145;-74
2021/03/27 04:57:20;;;;;;;15.05;1.70;;;6.60;99.90;;;;;;5070093;28;20056;-72
2021/03/27 04:59:49;;;;;;;14.63;1.73;;;6.60;99.90;;;;;;5070911;28;20024;-73
2021/03/27 05:02:42;;;;;;;20.02;2.60;;;6.60;99.90;;;;;;5049399;28;20127;-73
2021/03/27 05:05:42;;;;;;;18.08;3.03;;;6.60;99.90;;;;;;5060499;28;20425;-72
2021/03/27 05:08:54;;;;;;;8.88;1.35;;;6.50;99.90;;;;;;5053562;28;20047;-73
2021/03/27 05:11:23;;;;;;;15.70;2.78;;;6.50;99.90;;;;;;5051513;28;20032;-73
2021/03/27 05:13:56;;;;;;;12.25;1.70;;;6.50;99.90;;;;;;5072708;28;20384;-73
2021/03/27 05:16:27;;;;;;;8.90;2.13;;;6.40;99.90;;;;;;5055594;28;20123;-73
2021/03/27 05:19:24;;;;;;;14.65;2.17;;;6.40;99.90;;;;;;5055935;28;20021;-73
2021/03/27 05:22:19;;;;;;;16.65;2.67;;;6.40;99.90;;;;;;5058786;28;20516;-73
2021/03/27 05:25:19;;;;;;;14.63;1.75;;;6.50;99.90;;;;;;5056925;28;20117;-73
2021/03/27 05:28:01;;;;;;;10.05;1.40;;;6.40;99.90;;;;;;5072914;28;20029;-73
2021/03/27 05:30:29;;;;;;;14.52;1.95;;;6.50;99.90;;;;;;5075648;28;20020;-73
2021/03/27 05:33:07;;;;;;;11.00;2.28;;;6.50;99.90;;;;;;5059085;28;20136;-73
2021/03/27 05:35:42;;;;;;;10.50;2.55;;;6.50;99.90;;;;;;5071332;28;20039;-73
2021/03/27 05:38:23;;;;;;;14.27;1.70;;;6.50;99.90;;;;;;5076009;28;20032;-73
2021/03/27 05:41:14;;;;;;;16.70;2.30;;;6.50;99.90;;;;;;5050066;28;20099;-73
2021/03/27 05:43:56;;;;;;;11.73;2.42;;;6.50;99.90;;;;;;5057717;28;20140;-74
2021/03/27 05:46:27;;;;;;;25.60;4.05;;;6.50;99.90;;;;;;5069735;28;20043;-73
2021/03/27 05:49:40;;;;;;;14.80;1.25;;;6.40;99.90;;;;;;5056717;28;20503;-73
2021/03/27 05:52:27;;;;;;;3.65;1.00;;;6.30;99.90;;;;;;4990612;28;20158;-73
2021/03/27 05:55:14;;;;;;;4.23;1.33;;;6.20;99.90;;;;;;4990337;28;20034;-73
2021/03/27 05:58:08;;;;;;;5.03;0.98;;;6.20;99.90;;;;;;5037808;28;20101;-74
2021/03/27 06:00:48;;;;;;;4.65;1.52;;;6.10;99.90;;;;;;5055882;28;20044;-73
2021/03/27 06:03:44;;;;;;;7.70;1.15;;;6.10;99.90;;;;;;5075660;28;20485;-74
2021/03/27 06:06:21;;;;;;;9.38;1.38;;;6.10;99.90;;;;;;5074918;28;20021;-73
2021/03/27 06:09:16;;;;;;;7.85;1.20;;;6.00;99.90;;;;;;5075585;28;20033;-73
2021/03/27 06:11:58;;;;;;;10.45;0.95;;;6.00;99.90;;;;;;5024338;28;20558;-73
2021/03/27 06:14:48;;;;;;;6.35;1.55;;;6.00;99.90;;;;;;5075000;28;20468;-72
2021/03/27 06:17:36;;;;;;;9.65;1.27;;;5.90;99.90;;;;;;5069115;28;20107;-73
2021/03/27 06:20:14;;;;;;;12.27;2.38;;;6.00;99.90;;;;;;5075047;28;20036;-73
2021/03/27 06:22:55;;;;;;;8.95;1.15;;;6.10;99.90;;;;;;5056291;28;20082;-74
2021/03/27 06:25:23;;;;;;;8.82;1.23;;;6.10;99.90;;;;;;5073515;28;20029;-74
2021/03/27 06:28:10;;;;;;;8.43;1.38;;;6.10;99.90;;;;;;5051671;28;20066;-73
2021/03/27 06:31:00;;;;;;;6.90;1.40;;;6.20;99.90;;;;;;5056356;28;20110;-74
2021/03/27 06:33:50;;;;;;;5.45;1.05;;;6.40;99.90;;;;;;5068333;28;20036;-74
2021/03/27 06:36:29;;;;;;;11.75;1.83;;;6.60;99.90;;;;;;5054501;28;20124;-74
2021/03/27 06:39:19;;;;;;;12.27;1.95;;;6.80;99.90;;;;;;5072041;28;20112;-73
2021/03/27 06:42:00;;;;;;;7.32;1.50;;;6.90;99.90;;;;;;5074066;28;20043;-73
2021/03/27 06:44:49;;;;;;;11.65;2.30;;;6.80;99.90;;;;;;5073750;28;20037;-73
2021/03/27 06:47:47;;;;;;;7.05;1.13;;;6.80;99.90;;;;;;5073247;28;20140;-73
2021/03/27 06:50:45;;;;;;;12.48;1.75;;;6.70;99.90;;;;;;5009501;28;20040;-73
2021/03/27 06:53:19;;;;;;;11.73;1.75;;;6.70;99.90;;;;;;5049180;28;20076;-73
2021/03/27 06:56:14;;;;;;;10.75;1.30;;;6.80;99.90;;;;;;5073439;28;20030;-73
2021/03/27 06:59:07;;;;;;;15.80;1.98;;;7.00;99.90;;;;;;5019963;28;20076;-74
2021/03/27 07:02:03;;;;;;;9.65;1.30;;;7.20;99.90;;;;;;5074699;28;20032;-73
2021/03/27 07:04:29;;;;;;;17.40;3.13;;;7.10;99.90;;;;;;5074275;28;20373;-73
2021/03/27 07:07:00;;;;;;;14.20;1.85;;;7.00;99.90;;;;;;5057230;28;20032;-73
2021/03/27 07:09:47;;;;;;;12.35;2.65;;;7.00;99.90;;;;;;5073807;28;20024;-73
2021/03/27 07:12:43;;;;;;;7.78;1.27;;;7.10;99.90;;;;;;5073258;28;20480;-73
2021/03/27 07:15:36;;;;;;;17.88;2.05;;;7.20;99.90;;;;;;5054412;28;20032;-73
2021/03/27 07:18:24;;;;;;;8.55;2.50;;;7.20;99.90;;;;;;5063676;28;20485;-72
2021/03/27 07:21:12;;;;;;;13.65;2.63;;;7.20;99.90;;;;;;5054513;28;20037;-72
2021/03/27 07:23:57;;;;;;;12.93;2.55;;;7.30;99.90;;;;;;5065040;28;20041;-72
2021/03/27 07:26:42;;;;;;;12.93;2.00;;;7.40;99.90;;;;;;5007190;28;20086;-72
2021/03/27 07:29:33;;;;;;;17.90;2.42;;;7.40;99.90;;;;;;5073171;28;20055;-72
2021/03/27 07:32:08;;;;;;;15.32;1.85;;;7.40;99.90;;;;;;5064382;28;20166;-72
2021/03/27 07:34:46;;;;;;;11.95;2.03;;;7.30;99.90;;;;;;5055658;28;20028;-72
2021/03/27 07:37:26;;;;;;;12.52;1.98;;;7.30;99.90;;;;;;5073157;28;20493;-72
2021/03/27 07:39:55;;;;;;;9.63;1.77;;;7.40;99.90;;;;;;5045825;28;20028;-73
2021/03/27 07:42:40;;;;;;;13.77;2.42;;;7.40;99.90;;;;;;5052000;28;20043;-72
2021/03/27 07:45:24;;;;;;;16.35;2.58;;;7.50;99.90;;;;;;5068087;28;20051;-73
2021/03/27 07:48:09;;;;;;;10.57;2.72;;;7.50;99.90;;;;;;5068610;28;20063;-73
2021/03/27 07:50:50;;;;;;;37.10;3.05;;;7.60;99.90;;;;;;5069763;28;20090;-73
2021/03/27 07:53:54;;;;;;;17.10;1.77;;;7.60;99.90;;;;;;5054122;28;20135;-73
2021/03/27 07:56:58;;;;;;;8.65;2.30;;;7.80;99.90;;;;;;5052971;28;20487;-75
2021/03/27 07:59:32;;;;;;;8.88;2.00;;;8.20;99.90;;;;;;5027292;28;20033;-72
2021/03/27 08:02:14;;;;;;;6.65;1.50;;;8.50;99.90;;;;;;5053129;28;20032;-71
2021/03/27 08:05:02;;;;;;;24.85;2.00;;;8.60;99.90;;;;;;5070368;28;20450;-72
2021/03/27 08:07:46;;;;;;;26.77;3.00;;;8.70;99.90;;;;;;5054938;28;20548;-73
2021/03/27 08:10:33;;;;;;;15.95;3.65;;;8.40;99.90;;;;;;5069063;28;20090;-73
2021/03/27 08:13:08;;;;;;;12.00;1.50;;;8.20;99.90;;;;;;5070548;28;20474;-73
2021/03/27 08:15:50;;;;;;;12.20;2.65;;;7.80;99.90;;;;;;5069753;28;20366;-73
2021/03/27 08:18:37;;;;;;;16.60;2.33;;;7.50;99.90;;;;;;5071371;28;20068;-74
2021/03/27 08:21:26;;;;;;;;;;;7.10;99.90;;;;;;5069230;28;20032;-74
2021/03/27 08:24:32;;;;;;;8.52;1.48;;;6.90;99.90;;;;;;5030105;28;20030;-74
2021/03/27 08:27:42;;;;;;;19.40;2.05;;;6.80;99.90;;;;;;5068717;28;20028;-75
2021/03/27 08:30:34;;;;;;;12.00;2.28;;;6.80;99.90;;;;;;5050108;28;20040;-74
2021/03/27 08:33:34;;;;;;;14.32;1.92;;;6.90;99.90;;;;;;5070351;28;20386;-74
2021/03/27 08:36:25;;;;;;;9.75;1.35;;;7.10;99.90;;;;;;5070315;28;20485;-74
2021/03/27 08:39:17;;;;;;;9.90;1.48;;;7.40;99.90;;;;;;5071742;28;20048;-75
2021/03/27 08:42:13;;;;;;;10.88;2.53;;;7.60;99.90;;;;;;5056781;28;20032;-74
2021/03/27 08:44:55;;;;;;;17.75;1.90;;;7.80;99.90;;;;;;5064398;28;20079;-74
2021/03/27 08:47:51;;;;;;;12.20;1.73;;;7.50;99.90;;;;;;5049986;28;20033;-74
2021/03/27 08:50:36;;;;;;;11.63;1.20;;;7.60;99.90;;;;;;5052322;28;20534;-72
2021/03/27 08:53:20;;;;;;;15.32;2.17;;;7.60;99.90;;;;;;5048631;28;20087;-73
2021/03/27 08:56:13;;;;;;;10.73;1.83;;;7.60;99.90;;;;;;5072424;28;20357;-73
2021/03/27 08:59:02;;;;;;;11.90;1.85;;;7.40;99.90;;;;;;5071006;28;20191;-73
2021/03/27 09:01:46;;;;;;;15.65;1.83;;;7.20;99.90;;;;;;5065200;28;20020;-74
2021/03/27 09:07:43;;;;;;;7.95;1.60;;;7.30;99.90;;;;;;5065722;28;20515;-74
2021/03/27 09:10:34;;;;;;;9.27;2.63;;;7.60;99.90;;;;;;5050204;28;20029;-74
2021/03/27 09:13:14;;;;;;;12.45;2.25;;;7.70;99.90;;;;;;5046166;28;20083;-74
2021/03/27 09:16:17;;;;;;;7.53;2.67;;;7.70;99.90;;;;;;5067021;28;20024;-74
2021/03/27 09:19:40;;;;;;;11.85;1.67;;;7.60;99.90;;;;;;5070036;28;20117;-73
2021/03/27 09:22:24;;;;;;;9.75;1.23;;;7.60;99.90;;;;;;4982545;28;20037;-73
2021/03/27 09:25:27;;;;;;;10.95;1.55;;;7.80;99.90;;;;;;5002479;28;20053;-73
2021/03/27 09:28:19;;;;;;;8.07;1.92;;;7.80;99.90;;;;;;5025108;28;20039;-74
2021/03/27 09:31:12;;;;;;;9.25;1.55;;;7.80;99.90;;;;;;5063225;28;20055;-75
2021/03/27 09:33:45;;;;;;;6.88;1.13;;;7.80;99.90;;;;;;5047842;28;20123;-74
2021/03/27 09:36:16;;;;;;;6.13;1.60;;;7.80;99.90;;;;;;5064514;28;20469;-74
2021/03/27 09:39:10;;;;;;;7.00;1.15;;;8.00;99.90;;;;;;5044902;28;20024;-74
2021/03/27 09:42:17;;;;;;;7.00;1.40;;;8.00;99.90;;;;;;5038010;28;20060;-74
2021/03/27 09:45:11;;;;;;;3.30;0.90;;;8.20;99.90;;;;;;5023155;28;20037;-74
2021/03/27 09:48:10;;;;;;;11.23;1.85;;;8.00;99.90;;;;;;5067359;28;20017;-74
2021/03/27 09:50:49;;;;;;;11.55;1.40;;;7.90;99.90;;;;;;5043377;28;20029;-74
2021/03/27 09:53:27;;;;;;;15.13;2.17;;;8.10;99.90;;;;;;5045186;28;20106;-74
2021/03/27 09:56:04;;;;;;;6.97;1.58;;;8.30;99.90;;;;;;5057245;28;20990;-74
2021/03/27 09:59:07;;;;;;;7.25;1.13;;;8.60;99.90;;;;;;5057284;28;20112;-74
2021/03/27 10:02:00;;;;;;;7.53;1.60;;;8.60;99.90;;;;;;5046068;28;20374;-76
2021/03/27 10:05:18;;;;;;;11.15;2.55;;;8.50;99.90;;;;;;5054882;28;20033;-74
2021/03/27 10:08:17;;;;;;;18.30;2.08;;;8.70;99.90;;;;;;4982634;28;20074;-73
2021/03/27 10:11:03;;;;;;;9.82;1.15;;;8.90;99.90;;;;;;5071236;28;20092;-73
2021/03/27 10:13:38;;;;;;;16.98;2.15;;;9.00;99.90;;;;;;5054972;28;20059;-73
2021/03/27 10:16:06;;;;;;;12.68;1.42;;;8.80;99.90;;;;;;5068320;28;20067;-72
2021/03/27 10:18:43;;;;;;;15.40;3.13;;;8.90;99.90;;;;;;5043051;28;20025;-73
2021/03/27 10:21:18;;;;;;;8.77;2.27;;;9.20;99.90;;;;;;5040325;28;20033;-73
2021/03/27 10:23:58;;;;;;;9.93;1.83;;;9.00;99.90;;;;;;5063787;28;20438;-73
2021/03/27 10:26:46;;;;;;;17.45;2.80;;;9.00;99.90;;;;;;5062151;28;20025;-73
2021/03/27 10:32:18;;;;;;;7.28;1.20;;;9.10;99.90;;;;;;5061801;28;20923;-72
2021/03/27 10:34:48;;;;;;;7.63;1.50;;;8.90;99.90;;;;;;5044452;28;20147;-72
2021/03/27 10:37:30;;;;;;;9.52;1.70;;;8.60;99.90;;;;;;5046444;28;20044;-72
2021/03/27 10:40:28;;;;;;;11.48;1.17;;;8.40;99.90;;;;;;5061698;28;20535;-72
2021/03/27 10:43:31;;;;;;;12.73;1.83;;;8.60;99.90;;;;;;5039651;28;20044;-71
2021/03/27 10:46:38;;;;;;;6.43;1.05;;;8.60;99.90;;;;;;5060415;28;20141;-72
2021/03/27 10:49:10;;;;;;;4.32;1.10;;;9.00;99.90;;;;;;5044238;28;20069;-72
2021/03/27 10:51:43;;;;;;;4.90;1.38;;;9.00;99.90;;;;;;5059475;28;20473;-71
2021/03/27 10:54:17;;;;;;;8.00;2.10;;;9.00;99.90;;;;;;5059538;28;20029;-71
2021/03/27 10:57:18;;;;;;;6.53;1.50;;;8.80;99.90;;;;;;5059873;28;20020;-71
2021/03/27 11:00:20;;;;;;;21.75;3.40;;;8.60;99.90;;;;;;5060566;28;20075;-73
2021/03/27 11:03:29;;;;;;;24.13;2.25;;;8.40;99.90;;;;;;5043244;28;20139;-71
2021/03/27 11:06:11;;;;;;;11.32;1.73;;;8.30;99.90;;;;;;5061657;28;20028;-71
2021/03/27 11:09:00;;;;;;;5.25;1.80;;;8.60;99.90;;;;;;5041902;28;20436;-72
2021/03/27 11:11:53;;;;;;;12.23;1.25;;;8.40;99.90;;;;;;5058066;28;20032;-72
2021/03/27 11:14:33;;;;;;;13.05;1.92;;;8.50;99.90;;;;;;5060689;28;20412;-72
2021/03/27 11:17:25;;;;;;;10.52;1.73;;;8.60;99.90;;;;;;5057888;28;20052;-72
2021/03/27 11:19:50;;;;;;;7.75;1.60;;;9.20;99.90;;;;;;5044149;28;20032;-72
2021/03/27 11:22:33;;;;;;;13.50;1.67;;;9.50;99.90;;;;;;5042961;28;20028;-72
2021/03/27 11:25:17;;;;;;;11.98;1.63;;;9.40;99.90;;;;;;5053736;28;20290;-72
2021/03/27 11:28:01;;;;;;;9.82;1.90;;;9.40;99.90;;;;;;5061478;28;20032;-72
2021/03/27 11:30:57;;;;;;;15.10;2.15;;;9.20;99.90;;;;;;5046962;28;20086;-73
2021/03/27 11:33:50;;;;;;;10.73;1.33;;;9.00;99.90;;;;;;5046521;28;20032;-72
2021/03/27 11:36:23;;;;;;;15.70;3.13;;;9.10;99.90;;;;;;5066264;28;20477;-72
2021/03/27 11:39:16;;;;;;;8.90;1.35;;;9.10;99.90;;;;;;5050544;28;20017;-71
2021/03/27 11:42:01;;;;;;;10.23;1.48;;;9.10;99.90;;;;;;5046085;28;20044;-74
2021/03/27 11:44:41;;;;;;;11.05;1.60;;;9.10;99.90;;;;;;5048866;28;20025;-73
2021/03/27 11:47:35;;;;;;;15.82;2.83;;;9.00;99.90;;;;;;5067257;28;20528;-71
2021/03/27 11:50:29;;;;;;;8.98;2.25;;;9.20;99.90;;;;;;5050980;28;20021;-72
2021/03/27 11:53:13;;;;;;;6.95;1.60;;;9.20;99.90;;;;;;5046690;28;20044;-73
2021/03/27 11:56:14;;;;;;;15.45;2.38;;;9.50;99.90;;;;;;5047612;28;20481;-72
2021/03/27 12:01:35;;;;;;;11.05;2.35;;;9.20;99.90;;;;;;5065554;28;20606;-72
2021/03/27 12:04:00;;;;;;;17.25;2.50;;;9.40;99.90;;;;;;5051424;28;20082;-72
2021/03/27 12:06:35;;;;;;;10.13;1.70;;;9.60;99.90;;;;;;5050079;28;20082;-72
2021/03/27 12:09:11;;;;;;;15.70;1.98;;;9.60;99.90;;;;;;5048543;28;20021;-72
2021/03/27 12:11:52;;;;;;;12.43;2.35;;;9.60;99.90;;;;;;5069832;28;20461;-72
2021/03/27 12:14:32;;;;;;;6.35;1.92;;;9.50;99.90;;;;;;5064944;28;20028;-72
2021/03/27 12:17:29;;;;;;;18.48;2.17;;;9.60;99.90;;;;;;5059754;28;20082;-73
2021/03/27 12:20:25;;;;;;;10.45;1.92;;;9.80;99.90;;;;;;5060273;28;20025;-73
2021/03/27 12:23:07;;;;;;;9.32;1.63;;;9.90;99.90;;;;;;5059582;28;20414;-73
2021/03/27 12:26:07;;;;;;;12.20;1.42;;;10.10;99.90;;;;;;5059715;28;20024;-73
2021/03/27 12:28:37;;;;;;;7.50;1.90;;;10.10;99.90;;;;;;5058192;28;20032;-73
2021/03/27 12:31:43;;;;;;;8.60;1.63;;;9.80;99.90;;;;;;5056433;28;20039;-73
2021/03/27 12:34:27;;;;;;;11.40;3.67;;;10.00;99.90;;;;;;5040372;28;20662;-73
2021/03/27 12:37:01;;;;;;;12.55;1.73;;;10.30;99.90;;;;;;5061912;28;20032;-73
2021/03/27 12:39:59;;;;;;;12.40;2.42;;;10.60;99.90;;;;;;5059616;28;20033;-71
2021/03/27 12:42:45;;;;;;;;;;;10.70;99.90;;;;;;5031604;28;20064;-72
2021/03/27 12:45:21;;;;;;;11.57;2.33;;;10.90;99.90;;;;;;5062961;28;19912;-74
2021/03/27 12:48:15;;;;;;;10.52;2.08;;;11.10;99.90;;;;;;5065899;28;20040;-72
2021/03/27 12:51:06;;;;;;;7.65;1.70;;;11.50;99.90;;;;;;5063547;28;20028;-73
2021/03/27 12:53:55;;;;;;;11.85;3.63;;;11.20;99.90;;;;;;5063545;28;20043;-73
2021/03/27 12:56:34;;;;;;;20.48;2.72;;;10.50;99.90;;;;;;5052128;28;20093;-71
2021/03/27 12:59:15;;;;;;;9.23;2.25;;;10.40;99.90;;;;;;5063841;28;20473;-72
2021/03/27 13:01:58;;;;;;;13.48;2.55;;;10.30;99.90;;;;;;5060760;28;20564;-72
2021/03/27 13:04:42;;;;;;;12.63;1.67;;;10.20;99.90;;;;;;5062538;28;20024;-73
2021/03/27 13:07:36;;;;;;;10.18;1.75;;;10.20;99.90;;;;;;5065556;28;20475;-72
2021/03/27 13:10:39;;;;;;;14.90;2.08;;;10.00;99.90;;;;;;5062679;28;20013;-72
2021/03/27 13:13:08;;;;;;;21.73;2.42;;;9.60;99.90;;;;;;5060857;28;20034;-72
2021/03/27 13:16:05;;;;;;;15.23;1.50;;;9.30;99.90;;;;;;5058538;28;20032;-72
2021/03/27 13:18:39;;;;;;;12.73;2.35;;;9.30;99.90;;;;;;5062744;28;20020;-73
2021/03/27 13:21:07;;;;;;;18.98;2.22;;;9.30;99.90;;;;;;5060827;28;20032;-73
2021/03/27 13:23:42;;;;;;;7.93;1.52;;;9.00;99.90;;;;;;5061189;28;20155;-72
2021/03/27 13:26:16;;;;;;;11.88;2.03;;;8.90;99.90;;;;;;5044738;28;20488;-73
2021/03/27 13:28:53;;;;;;;13.57;1.60;;;9.10;99.90;;;;;;5060131;28;20024;-72
2021/03/27 13:31:22;;;;;;;13.27;2.47;;;9.60;99.90;;;;;;5060946;28;20043;-73
2021/03/27 13:34:08;;;;;;;11.27;1.80;;;10.10;99.90;;;;;;5044176;28;20017;-73
2021/03/27 13:37:01;;;;;;;15.18;1.70;;;10.20;99.90;;;;;;5037059;28;20472;-72
2021/03/27 13:39:37;;;;;;;13.35;2.30;;;10.10;99.90;;;;;;5061513;28;20094;-72
2021/03/27 13:42:26;;;;;;;10.40;2.13;;;10.10;99.90;;;;;;5070207;28;20029;-73
2021/03/27 13:45:09;;;;;;;14.52;1.60;;;10.30;99.90;;;;;;5045898;28;20036;-73
2021/03/27 13:47:56;;;;;;;10.75;1.70;;;10.70;99.90;;;;;;5067091;28;20032;-73
2021/03/27 13:50:31;;;;;;;15.85;2.53;;;10.60;99.90;;;;;;5041615;28;20508;-72
2021/03/27 13:53:28;;;;;;;8.75;1.88;;;10.00;99.90;;;;;;5064056;28;20040;-72
2021/03/27 13:56:25;;;;;;;14.93;2.60;;;10.00;99.90;;;;;;5066632;28;20047;-73
2021/03/27 13:59:06;;;;;;;9.48;1.38;;;9.80;99.90;;;;;;5049318;28;20044;-73
2021/03/27 14:02:04;;;;;;;13.00;2.05;;;9.60;99.90;;;;;;5066157;28;20412;-72
2021/03/27 14:04:35;;;;;;;18.48;2.08;;;10.10;99.90;;;;;;5054369;28;20045;-72
2021/03/27 14:07:09;;;;;;;11.30;1.95;;;10.30;99.90;;;;;;5065531;28;20376;-72
2021/03/27 14:10:14;;;;;;;7.57;1.65;;;10.10;99.90;;;;;;5065398;28;20026;-72
2021/03/27 14:12:52;;;;;;;12.50;2.17;;;10.30;99.90;;;;;;5046915;28;20031;-73
2021/03/27 14:15:39;;;;;;;6.22;1.38;;;10.50;99.90;;;;;;5067508;28;20109;-72
2021/03/27 14:18:44;;;;;;;12.48;1.73;;;10.50;99.90;;;;;;5048085;28;20141;-72
2021/03/27 14:21:43;;;;;;;20.67;2.40;;;10.20;99.90;;;;;;5067077;28;20036;-72
2021/03/27 14:24:30;;;;;;;12.23;2.40;;;9.90;99.90;;;;;;5065913;28;20587;-72
2021/03/27 14:27:17;;;;;;;13.03;2.20;;;9.70;99.90;;;;;;5051671;28;20041;-73
2021/03/27 14:30:15;;;;;;;9.80;1.50;;;9.50;99.90;;;;;;5047153;28;20290;-72